createdAt,value
2024-02-21T00:01:57.993Z,5.62
2024-02-21T00:05:00.939Z,5.86
2024-02-21T00:08:04.479Z,5.83
2024-02-21T00:11:07.853Z,5.85
2024-02-21T00:14:10.354Z,5.80
2024-02-21T00:17:13.086Z,5.82
2024-02-21T00:20:15.627Z,5.82
2024-02-21T00:23:18.453Z,5.86
2024-02-21T00:26:20.985Z,5.90
2024-02-21T00:29:23.858Z,5.90
2024-02-21T00:32:26.415Z,5.91
2024-02-21T00:35:29.195Z,5.86
2024-02-21T00:38:31.754Z,5.87
2024-02-21T00:41:34.522Z,5.89
2024-02-21T00:44:37.043Z,5.77
2024-02-21T00:47:39.884Z,5.88
2024-02-21T00:50:42.584Z,5.88
2024-02-21T00:53:45.296Z,5.90
2024-02-21T00:56:47.945Z,5.92
2024-02-21T00:59:50.747Z,5.91
2024-02-21T01:02:54.213Z,5.93
2024-02-21T01:05:57.234Z,5.94
2024-02-21T01:08:59.649Z,5.95
2024-02-21T01:12:02.612Z,5.93
2024-02-21T01:15:05.858Z,5.93
2024-02-21T01:18:08.683Z,5.86
2024-02-21T01:21:11.606Z,5.91
2024-02-21T01:24:15.372Z,5.90
2024-02-21T01:27:17.810Z,5.89
2024-02-21T01:30:20.680Z,5.88
2024-02-21T01:33:23.181Z,5.87
2024-02-21T01:36:25.865Z,5.79
2024-02-21T01:39:28.355Z,5.83
2024-02-21T01:42:31.055Z,5.82
2024-02-21T01:45:33.454Z,5.80
2024-02-21T01:48:36.801Z,5.79
2024-02-21T01:51:40.013Z,5.73
2024-02-21T01:54:43.767Z,5.75
2024-02-21T01:57:46.488Z,5.71
2024-02-21T02:00:49.812Z,5.73
2024-02-21T02:03:53.912Z,5.67
2024-02-21T02:06:56.967Z,5.51
2024-02-21T02:10:00.045Z,5.67
2024-02-21T02:13:02.632Z,5.63
2024-02-21T02:16:05.996Z,5.63
2024-02-21T02:19:08.727Z,5.62
2024-02-21T02:22:16.480Z,5.57
2024-02-21T02:25:19.039Z,5.53
2024-02-21T02:28:22.263Z,5.47
2024-02-21T02:31:24.862Z,5.47
2024-02-21T02:34:27.763Z,5.41
2024-02-21T02:37:30.286Z,5.44
2024-02-21T02:40:34.811Z,5.40
2024-02-21T02:43:38.039Z,5.39
2024-02-21T02:46:44.241Z,5.39
2024-02-21T02:49:51.843Z,5.17
2024-02-21T02:52:55.531Z,5.32
2024-02-21T02:55:58.069Z,5.30
2024-02-21T02:59:00.914Z,5.34
2024-02-21T03:02:03.542Z,5.30
2024-02-21T03:05:14.702Z,5.28
2024-02-21T03:08:17.191Z,5.26
2024-02-21T03:11:20.264Z,5.20
2024-02-21T03:14:22.789Z,5.23
2024-02-21T03:17:26.141Z,5.19
2024-02-21T03:20:28.568Z,5.16
2024-02-21T03:23:31.405Z,5.10
2024-02-21T03:26:33.906Z,5.15
2024-02-21T03:29:36.663Z,5.15
2024-02-21T03:32:40.344Z,5.17
2024-02-21T03:35:43.339Z,5.12
2024-02-21T03:38:46.076Z,5.11
2024-02-21T03:41:48.860Z,5.07
2024-02-21T03:44:51.251Z,5.02
2024-02-21T03:47:54.115Z,5.01
2024-02-21T03:50:56.596Z,4.94
2024-02-21T03:53:59.279Z,4.94
2024-02-21T03:57:01.820Z,4.91
2024-02-21T04:00:05.156Z,4.84
2024-02-21T04:03:10.272Z,4.80
2024-02-21T04:06:13.650Z,4.73
2024-02-21T04:09:16.174Z,4.73
2024-02-21T04:12:19.338Z,4.66
2024-02-21T04:15:21.847Z,4.65
2024-02-21T04:18:24.562Z,4.63
2024-02-21T04:21:27.080Z,4.63
2024-02-21T04:24:29.790Z,4.53
2024-02-21T04:27:32.164Z,4.51
2024-02-21T04:30:34.871Z,4.54
2024-02-21T04:33:37.237Z,4.51
2024-02-21T04:36:39.933Z,4.43
2024-02-21T04:39:42.324Z,4.42
2024-02-21T04:42:45.178Z,4.37
2024-02-21T04:45:47.633Z,3.92
2024-02-21T04:48:50.380Z,4.31
2024-02-21T04:51:52.898Z,4.25
2024-02-21T04:54:55.691Z,3.85
2024-02-21T04:57:58.524Z,4.21
2024-02-21T05:01:01.330Z,4.14
2024-02-21T05:04:03.987Z,4.13
2024-02-21T05:07:06.832Z,4.09
2024-02-21T05:10:10.697Z,4.07
2024-02-21T05:13:13.545Z,4.07
2024-02-21T05:16:16.119Z,4.07
2024-02-21T05:19:18.965Z,4.06
2024-02-21T05:22:21.684Z,4.07
2024-02-21T05:25:24.500Z,4.04
2024-02-21T05:28:27.028Z,3.96
2024-02-21T05:31:51.903Z,3.97
2024-02-21T05:34:54.751Z,3.98
2024-02-21T05:37:57.586Z,3.97
2024-02-21T05:41:00.414Z,3.96
2024-02-21T05:44:03.672Z,3.93
2024-02-21T05:47:10.940Z,3.92
2024-02-21T05:50:13.788Z,3.88
2024-02-21T05:53:16.233Z,3.84
2024-02-21T05:56:19.282Z,3.81
2024-02-21T05:59:21.859Z,3.85
2024-02-21T06:02:24.699Z,3.81
2024-02-21T06:05:27.414Z,3.77
2024-02-21T06:08:30.161Z,3.75
2024-02-21T06:11:32.935Z,3.53
2024-02-21T06:14:35.432Z,3.76
2024-02-21T06:17:38.232Z,3.76
2024-02-21T06:20:41.961Z,4.55
2024-02-21T06:23:44.828Z,4.27
2024-02-21T06:26:47.458Z,4.26
2024-02-21T06:29:50.189Z,4.18
2024-02-21T06:32:52.728Z,4.12
2024-02-21T06:35:55.701Z,3.93
2024-02-21T06:38:58.358Z,4.12
2024-02-21T06:42:03.862Z,4.16
2024-02-21T06:45:07.046Z,4.20
2024-02-21T06:48:10.036Z,4.26
2024-02-21T06:51:12.582Z,4.33
2024-02-21T06:54:15.485Z,4.39
2024-02-21T06:57:17.960Z,4.46
2024-02-21T07:00:22.659Z,4.07
2024-02-21T07:03:25.854Z,4.59
2024-02-21T07:06:29.933Z,4.68
2024-02-21T07:09:33.494Z,4.75
2024-02-21T07:12:38.152Z,4.85
2024-02-21T07:15:40.747Z,4.99
2024-02-21T07:18:43.520Z,5.09
2024-02-21T07:21:46.042Z,5.23
2024-02-21T07:24:48.749Z,5.36
2024-02-21T07:27:51.201Z,5.47
2024-02-21T07:30:53.887Z,5.57
2024-02-21T07:33:56.224Z,5.53
2024-02-21T07:36:59.148Z,5.79
2024-02-21T07:40:01.690Z,5.96
2024-02-21T07:43:04.582Z,6.10
2024-02-21T07:46:07.029Z,6.28
2024-02-21T07:49:10.082Z,6.43
2024-02-21T07:52:12.790Z,6.58
2024-02-21T07:55:15.718Z,6.82
2024-02-21T07:58:18.230Z,6.98
2024-02-21T08:01:23.834Z,7.11
2024-02-21T08:04:27.089Z,7.20
2024-02-21T08:07:30.488Z,7.28
2024-02-21T08:10:33.569Z,7.37
2024-02-21T08:13:36.121Z,7.57
2024-02-21T08:16:38.886Z,7.72
2024-02-21T08:19:41.375Z,7.87
2024-02-21T08:22:44.291Z,8.02
2024-02-21T08:25:47.175Z,7.98
2024-02-21T08:28:50.860Z,8.27
2024-02-21T08:31:54.783Z,8.39
2024-02-21T08:34:57.575Z,8.54
2024-02-21T08:38:00.064Z,8.59
2024-02-21T08:41:02.941Z,8.88
2024-02-21T08:44:05.730Z,9.10
2024-02-21T08:47:10.226Z,9.29
2024-02-21T08:50:22.735Z,9.48
2024-02-21T08:53:30.094Z,9.41
2024-02-21T08:56:32.659Z,9.70
2024-02-21T08:59:36.125Z,9.91
2024-02-21T09:02:41.876Z,10.04
2024-02-21T09:05:44.788Z,10.29
2024-02-21T09:08:47.433Z,10.38
2024-02-21T09:11:50.273Z,10.42
2024-02-21T09:14:52.794Z,10.46
2024-02-21T09:17:55.757Z,10.61
2024-02-21T09:20:58.505Z,10.89
2024-02-21T09:24:01.305Z,11.13
2024-02-21T09:27:03.840Z,11.45
2024-02-21T09:30:07.795Z,11.74
2024-02-21T09:33:11.592Z,11.77
2024-02-21T09:36:16.092Z,11.61
2024-02-21T09:39:19.430Z,11.23
2024-02-21T09:42:25.335Z,11.04
2024-02-21T09:45:27.811Z,11.51
2024-02-21T09:48:36.579Z,11.33
2024-02-21T09:51:39.850Z,11.12
2024-02-21T09:54:45.743Z,11.39
2024-02-21T09:57:49.052Z,11.78
2024-02-21T10:00:51.743Z,11.96
2024-02-21T10:03:56.606Z,12.59
2024-02-21T10:07:00.430Z,13.05
2024-02-21T10:10:06.860Z,13.24
2024-02-21T10:13:09.497Z,13.87
2024-02-21T10:16:12.193Z,14.47
2024-02-21T10:19:21.537Z,14.84
2024-02-21T10:22:26.685Z,14.99
2024-02-21T10:25:29.166Z,14.83
2024-02-21T10:28:32.387Z,15.23
2024-02-21T10:31:34.959Z,15.41
2024-02-21T10:34:38.934Z,15.81
2024-02-21T10:37:41.566Z,15.96
2024-02-21T10:40:44.922Z,16.05
2024-02-21T10:43:51.010Z,15.97
2024-02-21T10:46:53.987Z,16.33
2024-02-21T10:50:04.830Z,16.58
2024-02-21T10:53:37.240Z,16.12
2024-02-21T10:56:40.994Z,15.11
2024-02-21T10:59:45.626Z,14.19
2024-02-21T11:02:48.459Z,13.49
2024-02-21T11:05:52.231Z,14.27
2024-02-21T11:09:08.538Z,13.66
2024-02-21T11:12:12.713Z,13.18
2024-02-21T11:15:16.097Z,12.41
2024-02-21T11:18:25.416Z,12.30
2024-02-21T11:21:35.951Z,13.44
2024-02-21T11:24:39.241Z,14.73
2024-02-21T11:27:47.156Z,14.02
2024-02-21T11:30:52.379Z,13.64
2024-02-21T11:33:55.123Z,13.05
2024-02-21T11:36:57.861Z,12.49
2024-02-21T11:40:00.493Z,12.19
2024-02-21T11:43:03.270Z,11.88
2024-02-21T11:46:06.436Z,11.64
2024-02-21T11:49:09.220Z,11.53
2024-02-21T11:52:11.614Z,11.33
2024-02-21T11:55:14.294Z,11.29
2024-02-21T11:58:17.412Z,11.02
2024-02-21T12:01:20.264Z,11.09
2024-02-21T12:04:25.124Z,11.01
2024-02-21T12:07:30.219Z,11.01
2024-02-21T12:10:34.616Z,10.94
2024-02-21T12:13:37.149Z,10.93
2024-02-21T12:16:40.064Z,10.80
2024-02-21T12:19:42.635Z,10.59
2024-02-21T12:22:45.573Z,10.39
2024-02-21T12:25:48.172Z,10.37
2024-02-21T12:28:51.076Z,10.31
2024-02-21T12:31:55.061Z,10.26
2024-02-21T12:34:58.005Z,10.16
2024-02-21T12:38:01.160Z,10.33
2024-02-21T12:41:04.488Z,11.44
2024-02-21T12:44:10.410Z,11.90
2024-02-21T12:47:13.297Z,11.60
2024-02-21T12:50:16.400Z,11.34
2024-02-21T12:53:26.352Z,11.16
2024-02-21T12:56:34.961Z,10.98
2024-02-21T12:59:37.752Z,10.79
2024-02-21T13:02:42.869Z,10.88
2024-02-21T13:05:45.731Z,10.92
2024-02-21T13:08:48.255Z,10.89
2024-02-21T13:11:52.462Z,10.93
2024-02-21T13:14:55.256Z,11.03
2024-02-21T13:17:59.179Z,11.30
2024-02-21T13:21:01.938Z,11.36
2024-02-21T13:24:05.123Z,11.66
2024-02-21T13:27:07.870Z,11.01
2024-02-21T13:30:11.589Z,11.15
2024-02-21T13:33:14.706Z,10.63
2024-02-21T13:36:17.559Z,10.62
2024-02-21T13:39:20.558Z,10.57
2024-02-21T13:42:23.744Z,10.49
2024-02-21T13:45:26.202Z,10.36
2024-02-21T13:48:30.200Z,10.23
2024-02-21T13:51:34.145Z,10.18
2024-02-21T13:54:36.848Z,10.11
2024-02-21T13:57:39.507Z,10.05
2024-02-21T14:00:42.292Z,10.00
2024-02-21T14:03:45.036Z,9.98
2024-02-21T14:06:47.692Z,9.98
2024-02-21T14:09:50.814Z,9.90
2024-02-21T14:12:53.606Z,10.01
2024-02-21T14:15:56.558Z,10.08
2024-02-21T14:18:59.427Z,10.14
2024-02-21T14:22:03.468Z,10.19
2024-02-21T14:25:09.040Z,10.33
2024-02-21T14:28:11.700Z,10.32
2024-02-21T14:31:14.178Z,10.52
2024-02-21T14:34:17.778Z,10.51
2024-02-21T14:37:20.378Z,10.41
2024-02-21T14:40:23.257Z,10.33
2024-02-21T14:43:26.826Z,10.34
2024-02-21T14:46:29.682Z,10.31
2024-02-21T14:49:32.357Z,10.27
2024-02-21T14:52:35.954Z,10.27
2024-02-21T14:55:39.537Z,10.16
2024-02-21T14:58:43.126Z,10.04
2024-02-21T15:01:45.800Z,9.97
2024-02-21T15:04:48.727Z,9.93
2024-02-21T15:07:52.037Z,9.94
2024-02-21T15:10:55.316Z,9.78
2024-02-21T15:13:57.846Z,9.86
2024-02-21T15:17:00.768Z,9.74
2024-02-21T15:20:06.049Z,9.71
2024-02-21T15:23:09.119Z,9.68
2024-02-21T15:26:11.742Z,9.67
2024-02-21T15:29:14.917Z,9.64
2024-02-21T15:32:17.531Z,9.58
2024-02-21T15:35:20.517Z,9.57
2024-02-21T15:38:23.306Z,9.52
2024-02-21T15:41:26.083Z,9.46
2024-02-21T15:44:28.556Z,9.44
2024-02-21T15:47:32.064Z,9.40
2024-02-21T15:50:34.801Z,9.32
2024-02-21T15:53:39.544Z,9.25
2024-02-21T15:56:41.941Z,9.20
2024-02-21T15:59:44.935Z,9.15
2024-02-21T16:02:47.633Z,9.02
2024-02-21T16:05:55.728Z,9.04
2024-02-21T16:08:58.357Z,9.34
2024-02-21T16:12:06.144Z,9.46
2024-02-21T16:15:09.609Z,9.61
2024-02-21T16:18:12.454Z,9.23
2024-02-21T16:21:17.448Z,9.10
2024-02-21T16:24:20.763Z,8.89
2024-02-21T16:27:23.785Z,8.68
2024-02-21T16:30:27.165Z,8.53
2024-02-21T16:33:29.737Z,8.48
2024-02-21T16:36:32.565Z,8.51
2024-02-21T16:39:35.070Z,8.75
2024-02-21T16:42:38.706Z,8.94
2024-02-21T16:45:44.417Z,8.67
2024-02-21T16:48:47.962Z,8.49
2024-02-21T16:51:50.414Z,8.36
2024-02-21T16:54:53.564Z,8.25
2024-02-21T16:57:56.100Z,8.18
2024-02-21T17:01:01.275Z,8.49
2024-02-21T17:04:04.014Z,8.28
2024-02-21T17:07:07.391Z,8.15
2024-02-21T17:10:10.207Z,8.10
2024-02-21T17:13:13.548Z,8.08
2024-02-21T17:16:16.071Z,8.08
2024-02-21T17:19:18.943Z,8.12
2024-02-21T17:22:21.724Z,8.08
2024-02-21T17:25:24.554Z,8.03
2024-02-21T17:28:27.071Z,8.00
2024-02-21T17:31:30.085Z,8.00
2024-02-21T17:34:32.957Z,8.00
2024-02-21T17:37:36.192Z,8.00
2024-02-21T17:40:38.871Z,8.03
2024-02-21T17:43:43.126Z,8.03
2024-02-21T17:46:45.814Z,8.01
2024-02-21T17:49:48.682Z,7.97
2024-02-21T17:52:51.239Z,7.94
2024-02-21T17:55:56.137Z,7.89
2024-02-21T17:58:58.731Z,7.86
2024-02-21T18:02:01.460Z,7.88
2024-02-21T18:05:05.337Z,7.86
2024-02-21T18:08:08.940Z,7.85
2024-02-21T18:11:11.830Z,7.80
2024-02-21T18:14:14.555Z,7.74
2024-02-21T18:17:17.510Z,7.74
2024-02-21T18:20:20.102Z,7.73
2024-02-21T18:23:22.869Z,7.73
2024-02-21T18:26:25.371Z,7.72
2024-02-21T18:29:38.066Z,7.67
2024-02-21T18:32:44.019Z,7.71
2024-02-21T18:35:47.046Z,7.71
2024-02-21T18:38:50.202Z,7.67
2024-02-21T18:41:53.980Z,7.62
2024-02-21T18:44:57.176Z,7.58
2024-02-21T18:48:00.963Z,7.59
2024-02-21T18:51:03.894Z,7.56
2024-02-21T18:54:06.889Z,7.90
2024-02-21T18:57:09.569Z,7.75
2024-02-21T19:00:16.768Z,7.66
2024-02-21T19:03:20.513Z,7.55
2024-02-21T19:06:23.396Z,7.49
2024-02-21T19:09:26.060Z,7.40
2024-02-21T19:12:28.782Z,7.34
2024-02-21T19:15:31.207Z,7.32
2024-02-21T19:18:34.107Z,7.32
2024-02-21T19:21:36.983Z,7.92
2024-02-21T19:24:39.755Z,7.14
2024-02-21T19:27:42.620Z,7.41
2024-02-21T19:30:46.934Z,7.39
2024-02-21T19:33:49.426Z,7.32
2024-02-21T19:36:52.160Z,7.29
2024-02-21T19:39:54.863Z,6.90
2024-02-21T19:43:03.860Z,7.12
2024-02-21T19:46:06.321Z,7.24
2024-02-21T19:49:09.285Z,7.22
2024-02-21T19:52:11.909Z,7.15
2024-02-21T19:55:16.757Z,7.15
2024-02-21T19:58:19.260Z,7.17
2024-02-21T20:01:22.436Z,6.74
2024-02-21T20:04:25.239Z,7.12
2024-02-21T20:07:28.165Z,7.14
2024-02-21T20:10:30.976Z,7.13
2024-02-21T20:13:34.486Z,7.08
2024-02-21T20:16:37.977Z,7.11
2024-02-21T20:19:40.950Z,7.01
2024-02-21T20:22:43.945Z,7.13
2024-02-21T20:25:46.435Z,7.13
2024-02-21T20:28:49.265Z,7.09
2024-02-21T20:31:51.997Z,7.05
2024-02-21T20:34:55.038Z,6.93
2024-02-21T20:37:57.695Z,7.04
2024-02-21T20:41:03.332Z,7.03
2024-02-21T20:44:06.448Z,6.99
2024-02-21T20:47:09.306Z,6.97
2024-02-21T20:50:12.962Z,6.95
2024-02-21T20:53:15.760Z,6.84
2024-02-21T20:56:18.254Z,6.95
2024-02-21T20:59:21.046Z,6.95
2024-02-21T21:02:23.960Z,6.94
2024-02-21T21:05:26.825Z,6.97
2024-02-21T21:08:29.717Z,6.95
2024-02-21T21:11:42.112Z,6.94
2024-02-21T21:14:48.981Z,6.96
2024-02-21T21:17:52.273Z,6.50
2024-02-21T21:20:55.001Z,6.93
2024-02-21T21:23:57.823Z,6.97
2024-02-21T21:27:00.663Z,6.97
2024-02-21T21:30:05.160Z,6.96
2024-02-21T21:33:07.858Z,6.97
2024-02-21T21:36:10.811Z,6.84
2024-02-21T21:39:17.308Z,6.94
2024-02-21T21:42:20.123Z,6.91
2024-02-21T21:45:23.710Z,6.89
2024-02-21T21:48:26.761Z,6.87
2024-02-21T21:51:30.693Z,6.84
2024-02-21T21:54:33.409Z,6.83
2024-02-21T21:57:35.888Z,6.79
2024-02-21T22:00:38.583Z,6.76
2024-02-21T22:03:41.423Z,6.75
2024-02-21T22:06:44.063Z,6.71
2024-02-21T22:09:49.564Z,6.71
2024-02-21T22:12:52.226Z,6.68
2024-02-21T22:15:54.916Z,6.67
2024-02-21T22:18:57.394Z,6.66
2024-02-21T22:22:01.086Z,6.65
2024-02-21T22:25:03.629Z,6.64
2024-02-21T22:28:08.073Z,6.63
2024-02-21T22:31:14.349Z,6.64
2024-02-21T22:34:17.803Z,6.65
2024-02-21T22:37:20.307Z,6.64
2024-02-21T22:40:23.036Z,6.64
2024-02-21T22:43:25.691Z,6.61
2024-02-21T22:46:28.516Z,6.63
2024-02-21T22:49:31.540Z,6.60
2024-02-21T22:52:34.395Z,6.58
2024-02-21T22:55:37.167Z,6.55
2024-02-21T22:58:39.918Z,6.53
2024-02-21T23:01:43.885Z,6.48
2024-02-21T23:04:46.845Z,6.48
2024-02-21T23:07:51.070Z,6.44
2024-02-21T23:10:56.692Z,6.37
2024-02-21T23:13:59.739Z,6.32
2024-02-21T23:17:02.502Z,6.29
2024-02-21T23:20:08.162Z,6.19
2024-02-21T23:23:11.331Z,6.15
2024-02-21T23:26:14.397Z,6.11
2024-02-21T23:29:17.303Z,5.98
2024-02-21T23:32:20.296Z,5.98
2024-02-21T23:35:25.142Z,5.94
2024-02-21T23:38:27.557Z,5.89
2024-02-21T23:41:30.241Z,5.83
2024-02-21T23:44:33.569Z,5.74
2024-02-21T23:47:36.382Z,5.79
2024-02-21T23:50:38.927Z,5.76
2024-02-21T23:53:41.778Z,5.73
2024-02-21T23:56:44.883Z,5.67
2024-02-21T23:59:47.576Z,5.23
